Time;durP1;ratioP1;P1;durP2;ratioP2;P2;SDS_P1;SDS_P2;PMS_P1;PMS_P2;Temp;Humidity;BMP_temperature;BMP_pressure;BME280_temperature;BME280_humidity;BME280_pressure;Samples;Min_cycle;Max_cycle;Signal;HPM_P1;HPM_P2
2022/01/16 06:51:55;;;;;;;5.13;3.45;;;;;;;;;;6283713;22;20045;-83
2022/01/16 06:54:20;;;;;;;6.30;3.95;;;;;;;;;;6339227;22;20053;-83
2022/01/16 06:56:46;;;;;;;4.60;3.63;;;;;;;;;;6339270;22;19995;-83
2022/01/16 06:59:11;;;;;;;6.80;4.18;;;;;;;;;;6339314;22;20003;-84
2022/01/16 07:01:37;;;;;;;5.10;4.20;;;;;;;;;;6339395;22;20006;-84
2022/01/16 07:04:02;;;;;;;5.07;3.50;;;;;;;;;;6339459;22;20410;-84
2022/01/16 07:06:28;;;;;;;5.82;3.72;;;;;;;;;;6341308;22;20003;-83
2022/01/16 07:08:53;;;;;;;5.70;3.63;;;;;;;;;;6341411;22;19999;-83
2022/01/16 07:11:19;;;;;;;5.63;3.80;;;;;;;;;;6313703;22;20063;-83
2022/01/16 07:13:45;;;;;;;6.30;3.97;;;;;;;;;;6341284;22;19998;-82
2022/01/16 07:16:10;;;;;;;8.13;3.55;;;;;;;;;;6341379;22;20435;-82
2022/01/16 07:18:36;;;;;;;5.65;4.00;;;;;;;;;;6341377;22;20030;-81
2022/01/16 10:07:01;;;;;;;6.13;5.07;;;;;;;;;;6335529;22;20022;-83
2022/01/16 10:09:26;;;;;;;5.35;4.10;;;;;;;;;;6339720;22;20042;-83
2022/01/16 10:11:57;;;;;;;4.10;3.70;;;;;;;;;;6339706;22;20010;-83
2022/01/16 10:14:37;;;;;;;4.63;4.20;;;;;;;;;;6339539;22;20379;-83
2022/01/16 10:17:14;;;;;;;59.78;22.90;;;;;;;;;;6311860;22;20010;-84
2022/01/16 10:19:40;;;;;;;22.50;10.80;;;;;;;;;;6340911;22;20011;-85
2022/01/16 10:22:08;;;;;;;38.13;16.73;;;;;;;;;;6311719;22;20049;-85
2022/01/16 10:24:34;;;;;;;18.08;10.02;;;;;;;;;;6339131;22;20077;-82
2022/01/16 10:27:09;;;;;;;11.90;7.03;;;;;;;;;;6339502;22;20022;-84
2022/01/16 10:29:39;;;;;;;5.60;4.97;;;;;;;;;;6339736;22;19999;-84
2022/01/16 10:32:14;;;;;;;6.57;5.65;;;;;;;;;;6339121;22;20355;-84
2022/01/16 10:34:40;;;;;;;9.30;7.13;;;;;;;;;;6339115;22;20007;-84
2022/01/16 10:37:24;;;;;;;12.35;8.57;;;;;;;;;;6339530;22;19994;-84
2022/01/16 10:40:09;;;;;;;6.05;5.55;;;;;;;;;;6339501;22;20009;-84
2022/01/16 10:42:35;;;;;;;15.20;10.98;;;;;;;;;;6339248;22;20003;-84
2022/01/16 10:45:06;;;;;;;8.15;7.38;;;;;;;;;;6339366;22;20005;-84
2022/01/16 10:47:36;;;;;;;7.93;6.70;;;;;;;;;;6339342;22;20090;-85
2022/01/16 10:50:09;;;;;;;6.32;5.72;;;;;;;;;;6339286;22;20014;-85
2022/01/16 10:52:47;;;;;;;6.00;5.43;;;;;;;;;;6339286;22;20329;-83
2022/01/16 10:55:13;;;;;;;6.22;5.63;;;;;;;;;;6311512;22;20088;-84
2022/01/16 10:57:40;;;;;;;5.53;5.03;;;;;;;;;;6338806;22;20003;-84
2022/01/16 11:00:09;;;;;;;5.82;5.32;;;;;;;;;;6339304;22;20002;-84
2022/01/16 11:02:35;;;;;;;6.13;5.63;;;;;;;;;;6311653;22;20011;-83
2022/01/16 11:05:08;;;;;;;5.75;5.25;;;;;;;;;;6339328;22;20038;-83
2022/01/16 11:07:34;;;;;;;5.07;4.57;;;;;;;;;;6338714;22;20007;-82
2022/01/16 11:10:00;;;;;;;5.85;5.38;;;;;;;;;;6311283;22;20005;-81
2022/01/16 11:12:26;;;;;;;5.43;4.88;;;;;;;;;;6311209;22;20011;-82
2022/01/16 11:14:52;;;;;;;6.25;5.55;;;;;;;;;;6338808;22;20410;-82
2022/01/16 11:17:17;;;;;;;6.78;6.07;;;;;;;;;;6337205;22;20010;-83
2022/01/16 11:19:43;;;;;;;6.55;5.13;;;;;;;;;;6338856;22;20068;-82
2022/01/16 11:22:11;;;;;;;5.43;4.93;;;;;;;;;;6311401;22;20003;-82
2022/01/16 11:25:00;;;;;;;5.35;4.82;;;;;;;;;;6338882;22;20073;-82
2022/01/16 11:27:26;;;;;;;5.88;5.38;;;;;;;;;;6313645;22;20026;-82
2022/01/16 11:29:51;;;;;;;5.43;4.93;;;;;;;;;;6339172;22;20406;-82
2022/01/16 11:32:17;;;;;;;4.35;4.00;;;;;;;;;;6339356;22;20444;-82
2022/01/16 11:34:43;;;;;;;4.80;4.38;;;;;;;;;;6338951;22;20014;-81
2022/01/16 11:37:09;;;;;;;6.13;4.70;;;;;;;;;;6338979;22;19995;-82
2022/01/16 11:39:36;;;;;;;5.47;4.65;;;;;;;;;;6339089;22;20052;-81
2022/01/16 11:42:04;;;;;;;5.63;5.13;;;;;;;;;;6338822;22;20077;-81
2022/01/16 11:44:32;;;;;;;4.72;4.22;;;;;;;;;;6339077;22;20369;-80
2022/01/16 11:47:00;;;;;;;5.32;4.82;;;;;;;;;;6338958;22;20003;-81
2022/01/16 11:49:35;;;;;;;4.70;4.30;;;;;;;;;;6338850;22;20425;-82
2022/01/16 11:52:09;;;;;;;4.32;3.92;;;;;;;;;;6340473;22;20006;-83
2022/01/16 11:54:40;;;;;;;4.35;3.97;;;;;;;;;;6339513;22;20010;-82
2022/01/16 11:57:25;;;;;;;5.43;4.32;;;;;;;;;;6340270;22;20003;-86
2022/01/16 12:00:10;;;;;;;4.88;3.88;;;;;;;;;;6340180;22;20007;-86
2022/01/16 12:02:48;;;;;;;4.90;4.43;;;;;;;;;;6340706;22;20010;-88
2022/01/16 12:05:23;;;;;;;4.90;4.50;;;;;;;;;;6340950;22;20006;-88
2022/01/16 12:07:49;;;;;;;6.10;5.50;;;;;;;;;;6343759;22;20102;-88
2022/01/16 12:10:35;;;;;;;5.88;4.18;;;;;;;;;;6313205;22;19999;-87
2022/01/16 12:13:01;;;;;;;6.93;6.22;;;;;;;;;;6340611;22;20021;-86
2022/01/16 12:15:28;;;;;;;7.57;5.65;;;;;;;;;;6341007;22;20421;-86
2022/01/16 12:17:54;;;;;;;4.78;4.28;;;;;;;;;;6339417;22;20078;-86
2022/01/16 12:20:26;;;;;;;12.38;8.57;;;;;;;;;;6340713;22;19999;-84
2022/01/16 12:22:58;;;;;;;8.85;6.43;;;;;;;;;;6340305;22;20326;-84
2022/01/16 12:25:26;;;;;;;9.75;6.13;;;;;;;;;;6340636;22;20037;-84
2022/01/16 12:27:52;;;;;;;4.35;3.65;;;;;;;;;;6340542;22;20010;-84
2022/01/16 12:30:38;;;;;;;4.22;3.67;;;;;;;;;;6341020;22;20321;-84
2022/01/16 12:33:15;;;;;;;4.72;4.30;;;;;;;;;;6312874;22;20006;-82
2022/01/16 12:35:41;;;;;;;10.55;7.50;;;;;;;;;;6340542;22;20003;-84
2022/01/16 12:38:25;;;;;;;5.03;4.30;;;;;;;;;;6312853;22;20441;-83
2022/01/16 12:41:11;;;;;;;3.47;3.17;;;;;;;;;;6340257;22;20006;-84
2022/01/16 12:43:48;;;;;;;2.60;2.40;;;;;;;;;;6312546;22;20135;-83
2022/01/16 12:46:24;;;;;;;3.17;2.80;;;;;;;;;;6312928;22;20034;-84
2022/01/16 12:48:51;;;;;;;22.38;12.68;;;;;;;;;;6312523;22;20041;-84
2022/01/16 12:51:19;;;;;;;18.92;10.20;;;;;;;;;;6340336;22;20002;-83
2022/01/16 12:53:50;;;;;;;5.25;3.88;;;;;;;;;;6340513;22;20018;-83
2022/01/16 12:56:19;;;;;;;3.75;2.90;;;;;;;;;;6340335;22;20003;-83
2022/01/16 12:58:45;;;;;;;3.92;3.30;;;;;;;;;;6340094;22;19998;-82
2022/01/16 13:01:11;;;;;;;3.70;3.33;;;;;;;;;;6312381;22;20282;-83
2022/01/16 13:03:37;;;;;;;2.95;2.65;;;;;;;;;;6339966;22;20007;-82
2022/01/16 13:06:28;;;;;;;3.25;2.28;;;;;;;;;;6312906;22;20046;-83
2022/01/16 13:09:01;;;;;;;6.75;4.07;;;;;;;;;;6278008;22;20011;-83
2022/01/16 13:11:31;;;;;;;3.63;3.10;;;;;;;;;;6277866;22;20476;-83
2022/01/16 13:13:57;;;;;;;3.60;2.85;;;;;;;;;;6277852;22;20053;-83
2022/01/16 13:16:31;;;;;;;3.83;2.72;;;;;;;;;;6277850;22;20426;-82
2022/01/16 13:19:00;;;;;;;4.20;3.20;;;;;;;;;;6278147;22;20004;-82
2022/01/16 13:21:33;;;;;;;4.33;3.10;;;;;;;;;;6277901;22;20027;-83
2022/01/16 13:23:58;;;;;;;9.00;6.18;;;;;;;;;;6277661;22;20225;-83
2022/01/16 13:26:26;;;;;;;4.03;3.38;;;;;;;;;;6277543;22;20454;-82
2022/01/16 13:28:59;;;;;;;3.53;3.20;;;;;;;;;;6277669;22;20010;-82
2022/01/16 13:31:25;;;;;;;11.25;8.45;;;;;;;;;;6277531;22;20012;-84
2022/01/16 13:34:10;;;;;;;6.28;4.75;;;;;;;;;;6277546;22;20007;-83
2022/01/16 13:36:36;;;;;;;10.63;7.25;;;;;;;;;;6275996;22;20008;-83
2022/01/16 13:39:03;;;;;;;5.18;3.85;;;;;;;;;;6277665;22;20011;-83
2022/01/16 13:41:29;;;;;;;4.68;3.38;;;;;;;;;;6277955;22;20071;-83
2022/01/16 13:43:54;;;;;;;3.60;2.80;;;;;;;;;;6277846;22;20093;-83
2022/01/16 13:46:19;;;;;;;4.80;3.65;;;;;;;;;;6277628;22;20437;-83
2022/01/16 13:48:47;;;;;;;3.28;2.97;;;;;;;;;;6278200;22;20079;-84
2022/01/16 13:51:13;;;;;;;3.08;2.70;;;;;;;;;;6277538;22;20078;-86
2022/01/16 13:53:40;;;;;;;3.28;2.65;;;;;;;;;;6277412;22;20445;-84
2022/01/16 13:56:12;;;;;;;3.47;2.75;;;;;;;;;;6277932;22;20034;-84
2022/01/16 13:58:56;;;;;;;4.35;3.50;;;;;;;;;;6277585;22;20411;-84
2022/01/16 14:01:31;;;;;;;7.03;3.10;;;;;;;;;;6277367;22;20004;-84
2022/01/16 14:04:17;;;;;;;6.47;4.45;;;;;;;;;;6275834;22;20007;-85
2022/01/16 14:06:49;;;;;;;10.52;5.80;;;;;;;;;;6285364;22;20043;-85
2022/01/16 14:09:15;;;;;;;11.05;7.63;;;;;;;;;;6339689;22;20009;-85
2022/01/16 14:11:52;;;;;;;10.77;6.53;;;;;;;;;;6339601;22;20003;-83
2022/01/16 14:14:20;;;;;;;20.10;12.40;;;;;;;;;;6339789;22;20471;-81
2022/01/16 14:22:16;;;;;;;4.68;3.33;;;;;;;;;;6346880;22;20452;-81
2022/01/16 14:24:45;;;;;;;5.20;3.78;;;;;;;;;;6338030;22;20372;-81
2022/01/16 14:27:16;;;;;;;7.53;3.50;;;;;;;;;;6336063;22;20033;-81
2022/01/16 14:29:44;;;;;;;4.63;3.38;;;;;;;;;;6337588;22;20002;-81
2022/01/16 14:32:10;;;;;;;4.78;2.70;;;;;;;;;;6311474;22;20006;-82
2022/01/16 14:34:37;;;;;;;4.00;2.65;;;;;;;;;;6338979;22;20085;-82
2022/01/16 14:37:04;;;;;;;4.22;3.40;;;;;;;;;;6339004;22;20003;-81
2022/01/16 14:39:30;;;;;;;4.18;3.42;;;;;;;;;;6338348;22;19999;-82
2022/01/16 14:41:58;;;;;;;4.70;3.70;;;;;;;;;;6338926;22;20052;-82
2022/01/16 14:44:27;;;;;;;5.35;4.50;;;;;;;;;;6339196;22;20003;-81
2022/01/16 14:46:54;;;;;;;4.97;3.67;;;;;;;;;;6339450;22;20006;-81
2022/01/16 14:49:19;;;;;;;5.18;4.13;;;;;;;;;;6339239;22;20091;-82
2022/01/16 14:51:46;;;;;;;5.00;4.10;;;;;;;;;;6339536;22;20085;-82
2022/01/16 14:54:12;;;;;;;5.55;4.07;;;;;;;;;;6339616;22;20372;-82
2022/01/16 14:56:38;;;;;;;4.70;4.00;;;;;;;;;;6339435;22;19999;-82
2022/01/16 14:59:04;;;;;;;5.80;4.07;;;;;;;;;;6339670;22;20393;-82
2022/01/16 15:01:30;;;;;;;5.75;4.13;;;;;;;;;;6339008;22;20433;-82
2022/01/16 15:03:56;;;;;;;3.50;2.83;;;;;;;;;;6339203;22;19999;-82
2022/01/16 15:06:21;;;;;;;3.88;3.00;;;;;;;;;;6339313;22;20425;-81
2022/01/16 15:08:48;;;;;;;5.00;3.35;;;;;;;;;;6339840;22;20440;-82
2022/01/16 15:11:15;;;;;;;5.32;3.30;;;;;;;;;;6339857;22;20022;-81
2022/01/16 15:13:42;;;;;;;4.13;3.20;;;;;;;;;;6339396;22;20094;-82
2022/01/16 15:16:14;;;;;;;4.10;3.20;;;;;;;;;;6339536;22;20002;-82
2022/01/16 15:18:42;;;;;;;3.92;3.53;;;;;;;;;;6339344;22;19999;-81
2022/01/16 15:21:08;;;;;;;4.60;3.90;;;;;;;;;;6339460;22;19999;-81
2022/01/16 15:23:34;;;;;;;21.52;14.13;;;;;;;;;;6339155;22;20086;-81
2022/01/16 16:45:16;;;;;;;8.98;5.22;;;;;;;;;;6328108;22;20023;-80
2022/01/16 16:47:41;;;;;;;8.43;5.88;;;;;;;;;;6340094;22;20010;-80
2022/01/16 16:50:08;;;;;;;13.85;6.15;;;;;;;;;;6339609;22;20371;-81
2022/01/16 16:52:34;;;;;;;13.52;5.90;;;;;;;;;;6340234;22;20073;-84
2022/01/16 16:55:00;;;;;;;7.28;4.95;;;;;;;;;;6340027;22;20030;-80
2022/01/16 16:57:27;;;;;;;13.32;6.07;;;;;;;;;;6340204;22;19999;-80
2022/01/16 16:59:52;;;;;;;13.30;5.63;;;;;;;;;;6339803;22;20007;-80
2022/01/16 17:02:18;;;;;;;9.98;5.07;;;;;;;;;;6339816;22;20318;-83
2022/01/16 17:04:44;;;;;;;11.07;5.82;;;;;;;;;;6339939;22;19999;-84
2022/01/16 17:07:11;;;;;;;10.50;5.78;;;;;;;;;;6340006;22;19999;-82
2022/01/16 17:09:37;;;;;;;10.13;5.30;;;;;;;;;;6338391;22;20356;-81
2022/01/16 17:12:04;;;;;;;9.25;6.25;;;;;;;;;;6339703;22;20011;-80
2022/01/16 17:14:30;;;;;;;20.83;10.95;;;;;;;;;;6339982;22;20422;-80
2022/01/16 17:16:55;;;;;;;14.02;7.28;;;;;;;;;;6312161;22;20010;-82
2022/01/16 17:22:10;;;;;;;11.80;6.30;;;;;;;;;;6347080;22;20049;-82
2022/01/16 17:24:36;;;;;;;14.95;7.00;;;;;;;;;;6339822;22;20006;-81
2022/01/16 17:27:03;;;;;;;12.85;6.18;;;;;;;;;;6312163;22;20383;-81
2022/01/16 17:29:29;;;;;;;15.05;7.85;;;;;;;;;;6339892;22;20001;-82
2022/01/16 17:31:55;;;;;;;15.30;6.60;;;;;;;;;;6339689;22;19998;-82
2022/01/16 17:34:20;;;;;;;12.63;7.47;;;;;;;;;;6339802;22;20022;-82
2022/01/16 17:36:46;;;;;;;17.90;6.88;;;;;;;;;;6339630;22;20006;-82
2022/01/16 17:39:11;;;;;;;15.68;7.65;;;;;;;;;;6339682;22;19999;-83
2022/01/16 17:41:37;;;;;;;15.02;8.15;;;;;;;;;;6339893;22;20006;-82
2022/01/16 17:44:03;;;;;;;13.50;8.90;;;;;;;;;;6339763;22;20076;-81
2022/01/16 17:46:28;;;;;;;11.88;7.00;;;;;;;;;;6340661;22;20030;-82
2022/01/16 17:48:53;;;;;;;12.00;7.35;;;;;;;;;;6337604;22;20002;-83
2022/01/16 17:51:20;;;;;;;11.18;6.95;;;;;;;;;;6339534;22;19995;-82
2022/01/16 17:53:46;;;;;;;11.98;7.70;;;;;;;;;;6339606;22;20007;-83
2022/01/16 17:56:12;;;;;;;15.98;6.80;;;;;;;;;;6337983;22;20445;-83
2022/01/16 17:58:39;;;;;;;11.32;6.05;;;;;;;;;;6339363;22;19999;-84
2022/01/16 18:01:04;;;;;;;12.95;6.00;;;;;;;;;;6339590;22;20072;-83
2022/01/16 18:03:29;;;;;;;13.68;6.82;;;;;;;;;;6339278;22;20003;-83
2022/01/16 18:05:56;;;;;;;12.93;5.57;;;;;;;;;;6339466;22;20407;-82
2022/01/16 18:08:21;;;;;;;11.00;6.80;;;;;;;;;;6338221;22;20010;-84
2022/01/16 18:10:47;;;;;;;11.93;6.78;;;;;;;;;;6340637;22;20413;-83
2022/01/16 18:13:12;;;;;;;17.65;8.68;;;;;;;;;;6341135;22;20056;-84
2022/01/16 18:15:38;;;;;;;14.70;8.05;;;;;;;;;;6312037;22;20422;-83
2022/01/16 18:18:04;;;;;;;19.15;8.90;;;;;;;;;;6340424;22;20006;-85
2022/01/16 18:20:32;;;;;;;12.02;7.38;;;;;;;;;;6341219;22;20002;-82
2022/01/16 18:22:58;;;;;;;49.45;29.75;;;;;;;;;;6340453;22;20007;-82
2022/01/16 18:25:23;;;;;;;160.50;97.22;;;;;;;;;;6340071;22;20006;-85
2022/01/16 18:27:50;;;;;;;51.35;33.55;;;;;;;;;;6340821;22;20479;-82
2022/01/16 18:30:16;;;;;;;35.13;22.35;;;;;;;;;;6340755;22;20041;-82
2022/01/16 18:32:41;;;;;;;40.60;24.23;;;;;;;;;;6312998;22;20028;-86
2022/01/16 18:35:09;;;;;;;28.52;17.27;;;;;;;;;;6339542;22;20028;-84
2022/01/16 18:37:36;;;;;;;36.28;22.85;;;;;;;;;;6339858;22;20003;-84
2022/01/16 18:40:03;;;;;;;27.63;17.92;;;;;;;;;;6339600;22;20025;-85
2022/01/16 18:42:30;;;;;;;23.77;15.52;;;;;;;;;;6339182;22;20073;-83
2022/01/16 18:45:02;;;;;;;22.88;15.70;;;;;;;;;;6339502;22;20070;-81
2022/01/16 18:47:30;;;;;;;21.30;14.65;;;;;;;;;;6339406;22;20003;-83
2022/01/16 18:49:55;;;;;;;23.48;15.38;;;;;;;;;;6339321;22;20074;-83
2022/01/16 18:52:20;;;;;;;26.60;14.45;;;;;;;;;;6339388;22;20419;-85
2022/01/16 18:54:46;;;;;;;22.30;14.95;;;;;;;;;;6311750;22;20003;-83
2022/01/16 18:57:11;;;;;;;25.58;15.75;;;;;;;;;;6339453;22;20007;-83
2022/01/16 18:59:37;;;;;;;23.25;15.70;;;;;;;;;;6339139;22;20329;-84
2022/01/16 19:02:05;;;;;;;25.75;16.35;;;;;;;;;;6338738;22;19998;-84
2022/01/16 19:04:31;;;;;;;23.52;14.73;;;;;;;;;;6339504;22;19999;-83
2022/01/16 19:06:56;;;;;;;19.95;12.13;;;;;;;;;;6311679;22;20003;-83
2022/01/16 19:09:23;;;;;;;21.77;14.00;;;;;;;;;;6311545;22;20425;-84
2022/01/16 19:11:48;;;;;;;19.42;11.90;;;;;;;;;;6339204;22;20048;-83
2022/01/16 19:14:13;;;;;;;20.90;11.02;;;;;;;;;;6339343;22;20006;-80
2022/01/16 19:16:40;;;;;;;14.18;9.18;;;;;;;;;;6339278;22;20003;-82
2022/01/16 19:19:07;;;;;;;16.23;10.15;;;;;;;;;;6338893;22;20359;-80
2022/01/16 19:21:33;;;;;;;15.50;9.27;;;;;;;;;;6311372;22;20330;-83
2022/01/16 19:23:59;;;;;;;18.77;11.65;;;;;;;;;;6339318;22;20003;-83
2022/01/16 19:26:24;;;;;;;17.27;11.38;;;;;;;;;;6339225;22;20006;-83
2022/01/16 19:28:50;;;;;;;18.42;11.38;;;;;;;;;;6339237;22;20009;-83
2022/01/16 19:31:15;;;;;;;13.73;8.35;;;;;;;;;;6339060;22;20002;-82
2022/01/16 19:33:40;;;;;;;22.33;13.50;;;;;;;;;;6338965;22;20003;-83
2022/01/16 19:36:06;;;;;;;18.90;11.02;;;;;;;;;;6338956;22;20059;-80
2022/01/16 19:38:32;;;;;;;17.83;10.05;;;;;;;;;;6339392;22;20007;-82
2022/01/16 19:40:58;;;;;;;14.88;9.68;;;;;;;;;;6339042;22;20125;-83
2022/01/16 19:43:24;;;;;;;11.80;8.75;;;;;;;;;;6339309;22;20409;-80
2022/01/16 19:45:52;;;;;;;13.68;8.27;;;;;;;;;;6338844;22;20064;-82
2022/01/16 19:48:18;;;;;;;13.30;8.00;;;;;;;;;;6311379;22;20003;-82
2022/01/16 19:50:44;;;;;;;19.17;9.98;;;;;;;;;;6338860;22;19994;-82
2022/01/16 19:53:10;;;;;;;18.75;10.10;;;;;;;;;;6338863;22;20033;-82
2022/01/16 19:55:36;;;;;;;13.85;10.10;;;;;;;;;;6310966;22;20013;-81
2022/01/16 19:58:02;;;;;;;18.08;11.02;;;;;;;;;;6310448;22;20326;-81
2022/01/16 20:00:29;;;;;;;18.80;12.20;;;;;;;;;;6339006;22;19999;-81
2022/01/16 20:02:56;;;;;;;16.45;10.18;;;;;;;;;;6338511;22;20011;-81
2022/01/16 20:05:22;;;;;;;16.05;10.73;;;;;;;;;;6338844;22;20007;-81
2022/01/16 20:07:48;;;;;;;122.50;56.38;;;;;;;;;;6338839;22;20025;-81
2022/01/16 20:10:15;;;;;;;56.40;28.08;;;;;;;;;;6338784;22;20481;-81
2022/01/16 20:12:41;;;;;;;35.47;19.88;;;;;;;;;;6339947;22;20003;-83
2022/01/16 20:15:15;;;;;;;28.08;17.50;;;;;;;;;;6340576;22;20003;-83
2022/01/16 20:17:42;;;;;;;41.42;27.52;;;;;;;;;;6340655;22;20468;-81
2022/01/16 20:20:08;;;;;;;26.70;14.32;;;;;;;;;;6340537;22;20082;-81
2022/01/16 20:22:34;;;;;;;58.63;34.03;;;;;;;;;;6340366;22;20422;-81
2022/01/16 20:25:00;;;;;;;28.80;17.80;;;;;;;;;;6312773;22;19999;-80
2022/01/16 20:27:26;;;;;;;23.40;14.23;;;;;;;;;;6340522;22;20029;-82
2022/01/16 20:29:51;;;;;;;81.68;45.95;;;;;;;;;;6340501;22;20007;-83
2022/01/16 20:32:17;;;;;;;36.35;22.30;;;;;;;;;;6340265;22;20417;-81
2022/01/16 20:34:42;;;;;;;73.25;37.22;;;;;;;;;;6340684;22;20005;-81
2022/01/16 20:37:07;;;;;;;29.30;15.02;;;;;;;;;;6340607;22;20003;-81
2022/01/16 20:39:33;;;;;;;170.63;74.78;;;;;;;;;;6340445;22;20003;-81
2022/01/16 20:41:59;;;;;;;44.70;23.73;;;;;;;;;;6340346;22;19998;-81
2022/01/16 20:44:25;;;;;;;23.00;12.13;;;;;;;;;;6340271;22;20065;-80
2022/01/16 20:46:52;;;;;;;26.52;15.57;;;;;;;;;;6340230;22;20022;-80
2022/01/16 20:49:18;;;;;;;26.35;16.67;;;;;;;;;;6312564;22;20003;-81
2022/01/16 20:51:43;;;;;;;17.17;10.68;;;;;;;;;;6340220;22;20002;-80
2022/01/16 20:54:09;;;;;;;16.73;11.90;;;;;;;;;;6340456;22;20467;-80
2022/01/16 20:56:35;;;;;;;14.35;10.10;;;;;;;;;;6340252;22;20002;-80
2022/01/16 20:59:01;;;;;;;10.85;7.28;;;;;;;;;;6340199;22;20426;-83
2022/01/16 21:01:27;;;;;;;9.45;6.68;;;;;;;;;;6340781;22;20005;-80
2022/01/16 21:03:52;;;;;;;9.90;6.72;;;;;;;;;;6338460;22;20006;-80
2022/01/16 21:06:19;;;;;;;10.70;7.63;;;;;;;;;;6340094;22;20003;-81
2022/01/16 21:08:46;;;;;;;10.82;7.90;;;;;;;;;;6340172;22;20468;-81
2022/01/16 21:11:13;;;;;;;9.75;6.82;;;;;;;;;;6340233;22;20003;-82
2022/01/16 21:13:38;;;;;;;10.10;6.50;;;;;;;;;;6339941;22;19999;-81
2022/01/16 21:16:04;;;;;;;9.07;6.32;;;;;;;;;;6340172;22;20002;-81
2022/01/16 21:18:30;;;;;;;8.93;6.45;;;;;;;;;;6340221;22;20089;-81
2022/01/16 21:20:56;;;;;;;11.13;7.15;;;;;;;;;;6340331;22;20045;-81
2022/01/16 21:23:22;;;;;;;8.70;6.20;;;;;;;;;;6339315;22;20325;-83
2022/01/16 21:25:50;;;;;;;10.07;6.50;;;;;;;;;;6339866;22;19998;-82
2022/01/16 21:28:16;;;;;;;10.82;6.47;;;;;;;;;;6339882;22;20368;-81
2022/01/16 21:30:43;;;;;;;9.77;6.43;;;;;;;;;;6340018;22;20007;-81
2022/01/16 21:33:09;;;;;;;10.27;6.13;;;;;;;;;;6339658;22;20083;-82
2022/01/16 21:35:35;;;;;;;10.60;6.13;;;;;;;;;;6339856;22;19995;-82
2022/01/16 21:38:01;;;;;;;6.80;5.00;;;;;;;;;;6340154;22;20005;-82
2022/01/16 21:40:28;;;;;;;12.23;7.43;;;;;;;;;;6339897;22;20030;-84
2022/01/16 21:42:54;;;;;;;13.82;8.02;;;;;;;;;;6339478;22;20056;-83
2022/01/16 21:45:23;;;;;;;14.05;9.70;;;;;;;;;;6339599;22;20009;-83
2022/01/16 21:47:56;;;;;;;16.50;8.75;;;;;;;;;;6311999;22;20326;-81
2022/01/16 21:50:22;;;;;;;16.08;9.32;;;;;;;;;;6339853;22;20329;-82
2022/01/16 21:52:50;;;;;;;16.85;10.30;;;;;;;;;;6339524;22;19998;-82
2022/01/16 21:55:19;;;;;;;15.38;10.18;;;;;;;;;;6312091;22;19999;-84
2022/01/16 21:57:45;;;;;;;13.43;8.60;;;;;;;;;;6340049;22;19998;-82
2022/01/16 22:00:11;;;;;;;11.82;8.20;;;;;;;;;;6312173;22;20346;-83
2022/01/16 22:02:38;;;;;;;14.77;8.13;;;;;;;;;;6311652;22;20005;-82
2022/01/16 22:05:04;;;;;;;10.60;6.15;;;;;;;;;;6339706;22;20009;-82
2022/01/16 22:07:29;;;;;;;11.52;7.50;;;;;;;;;;6339646;22;20314;-82
2022/01/16 22:09:56;;;;;;;12.63;7.03;;;;;;;;;;6339536;22;19999;-83
2022/01/16 22:12:23;;;;;;;9.90;6.47;;;;;;;;;;6339569;22;20102;-82
2022/01/16 22:14:49;;;;;;;12.82;7.45;;;;;;;;;;6339602;22;19999;-83
2022/01/16 22:17:15;;;;;;;10.13;6.88;;;;;;;;;;6339742;22;20075;-85
2022/01/16 22:19:42;;;;;;;9.63;6.55;;;;;;;;;;6339643;22;20037;-83
2022/01/16 22:22:08;;;;;;;13.80;6.05;;;;;;;;;;6339543;22;20444;-84
2022/01/16 22:24:34;;;;;;;7.82;5.35;;;;;;;;;;6311732;22;20003;-83
2022/01/16 22:26:59;;;;;;;8.25;5.68;;;;;;;;;;6339835;22;19995;-84
2022/01/16 22:29:25;;;;;;;7.32;4.85;;;;;;;;;;6339403;22;20082;-84
2022/01/16 22:31:50;;;;;;;8.25;5.18;;;;;;;;;;6339671;22;20081;-83
2022/01/16 22:34:16;;;;;;;6.60;4.90;;;;;;;;;;6339544;22;19999;-83
2022/01/16 22:36:42;;;;;;;8.30;5.15;;;;;;;;;;6339509;22;20006;-84
2022/01/16 22:39:08;;;;;;;8.65;5.30;;;;;;;;;;6339463;22;19999;-84
2022/01/16 22:41:33;;;;;;;6.78;4.78;;;;;;;;;;6339433;22;20329;-84
2022/01/16 22:43:59;;;;;;;8.27;5.60;;;;;;;;;;6311644;22;20007;-84
2022/01/16 22:46:26;;;;;;;7.80;6.10;;;;;;;;;;6339260;22;20011;-84
2022/01/16 22:48:53;;;;;;;11.10;6.43;;;;;;;;;;6339193;22;20037;-83
2022/01/16 22:51:20;;;;;;;7.93;5.85;;;;;;;;;;6339562;22;20066;-86
2022/01/16 22:53:45;;;;;;;7.22;5.18;;;;;;;;;;6339582;22;20560;-85
2022/01/16 22:56:11;;;;;;;6.97;4.93;;;;;;;;;;6339479;22;20026;-85
2022/01/16 22:58:36;;;;;;;5.35;3.83;;;;;;;;;;6339397;22;20003;-86
